CheckWX is a tool to help pilots better visualize weather data.  It is not intended as a substitute for an official pre-flight weather briefing.

18:35:56 UTC

KFTN METAR
Carrizo Springs
Carrizo Springs, Texas, USA
Current

21 mins ago

KFTN 261815Z AUTO 08004G15KT 10SM CLR 26/13 A3024 RMK A01
Observed
Mar-26 @ 18:15 UTC
Wind
  • 080° at 4 KTS
  • Gusting to 15 KTS
Visibility
10 SM
Flight Rules
VFR
Cloud Levels
  • Clear skies
Temperature
26°C / 79°F
Dewpoint
13°C / 55°F
Humidity
45%
Altimeter
30.24" Hg
Pressure
1024.02 hPa
Previous

41 mins ago

KFTN 261755Z AUTO 11009KT 080V140 10SM CLR 26/13 A3024 RMK A01
Observed
Mar-26 @ 17:55 UTC
Wind
  • 110° at 9 KTS
Visibility
10 SM
Flight Rules
VFR
Cloud Levels
  • Clear skies
Temperature
26°C / 79°F
Dewpoint
13°C / 55°F
Humidity
45%
Altimeter
30.24" Hg
Pressure
1024.02 hPa
Previous

1 hour ago

KFTN 261735Z AUTO 09009G16KT 10SM CLR 26/13 A3025 RMK A01
Observed
Mar-26 @ 17:35 UTC
Wind
  • 090° at 9 KTS
  • Gusting to 16 KTS
Visibility
10 SM
Flight Rules
VFR
Cloud Levels
  • Clear skies
Temperature
26°C / 79°F
Dewpoint
13°C / 55°F
Humidity
45%
Altimeter
30.25" Hg
Pressure
1024.42 hPa